sensor_id;sensor_type;location;lat;lon;timestamp;temperature;humidity
25128;DHT22;13107;51.304;6.866;2023-12-28T00:03:45;8.50;99.90
25128;DHT22;13107;51.304;6.866;2023-12-28T00:07:46;8.50;99.90
25128;DHT22;13107;51.304;6.866;2023-12-28T00:11:48;8.50;99.90
25128;DHT22;13107;51.304;6.866;2023-12-28T00:15:50;8.50;99.90
25128;DHT22;13107;51.304;6.866;2023-12-28T00:19:52;8.70;99.90
25128;DHT22;13107;51.304;6.866;2023-12-28T00:23:54;8.80;99.90
25128;DHT22;13107;51.304;6.866;2023-12-28T00:27:55;8.90;99.90
25128;DHT22;13107;51.304;6.866;2023-12-28T00:31:57;9.10;99.90
25128;DHT22;13107;51.304;6.866;2023-12-28T00:35:59;9.20;99.90
25128;DHT22;13107;51.304;6.866;2023-12-28T00:40:01;9.20;99.90
25128;DHT22;13107;51.304;6.866;2023-12-28T00:44:03;9.30;99.90
25128;DHT22;13107;51.304;6.866;2023-12-28T00:48:06;9.40;99.90
25128;DHT22;13107;51.304;6.866;2023-12-28T00:52:08;9.40;99.90
25128;DHT22;13107;51.304;6.866;2023-12-28T00:56:10;9.50;99.90
25128;DHT22;13107;51.304;6.866;2023-12-28T01:00:12;9.50;99.90
25128;DHT22;13107;51.304;6.866;2023-12-28T01:04:14;9.50;99.90
25128;DHT22;13107;51.304;6.866;2023-12-28T01:08:16;9.50;99.90
25128;DHT22;13107;51.304;6.866;2023-12-28T01:12:19;9.50;99.90
25128;DHT22;13107;51.304;6.866;2023-12-28T01:16:21;9.50;99.90
25128;DHT22;13107;51.304;6.866;2023-12-28T01:20:22;9.50;99.90
25128;DHT22;13107;51.304;6.866;2023-12-28T01:24:24;9.60;99.90
25128;DHT22;13107;51.304;6.866;2023-12-28T01:28:28;9.50;99.90
25128;DHT22;13107;51.304;6.866;2023-12-28T01:32:29;9.50;99.90
25128;DHT22;13107;51.304;6.866;2023-12-28T01:36:31;9.50;99.90
25128;DHT22;13107;51.304;6.866;2023-12-28T01:40:33;9.50;99.90
25128;DHT22;13107;51.304;6.866;2023-12-28T01:44:35;9.50;99.90
25128;DHT22;13107;51.304;6.866;2023-12-28T01:48:37;9.50;99.90
25128;DHT22;13107;51.304;6.866;2023-12-28T01:52:39;9.50;99.90
25128;DHT22;13107;51.304;6.866;2023-12-28T01:56:42;9.40;99.90
25128;DHT22;13107;51.304;6.866;2023-12-28T02:00:44;9.40;99.90
25128;DHT22;13107;51.304;6.866;2023-12-28T02:04:46;9.40;99.90
25128;DHT22;13107;51.304;6.866;2023-12-28T02:08:48;9.40;99.90
25128;DHT22;13107;51.304;6.866;2023-12-28T02:12:50;9.40;99.90
25128;DHT22;13107;51.304;6.866;2023-12-28T02:17:02;9.40;99.90
25128;DHT22;13107;51.304;6.866;2023-12-28T02:21:06;9.40;99.90
25128;DHT22;13107;51.304;6.866;2023-12-28T02:25:09;9.40;99.90
25128;DHT22;13107;51.304;6.866;2023-12-28T02:29:13;9.40;99.90
25128;DHT22;13107;51.304;6.866;2023-12-28T02:33:38;9.40;99.90
25128;DHT22;13107;51.304;6.866;2023-12-28T02:37:49;9.40;99.90
25128;DHT22;13107;51.304;6.866;2023-12-28T02:41:51;9.40;99.90
25128;DHT22;13107;51.304;6.866;2023-12-28T02:45:53;9.40;99.90
25128;DHT22;13107;51.304;6.866;2023-12-28T02:49:55;9.40;99.90
25128;DHT22;13107;51.304;6.866;2023-12-28T02:54:00;9.40;99.90
25128;DHT22;13107;51.304;6.866;2023-12-28T02:58:02;9.40;99.90
25128;DHT22;13107;51.304;6.866;2023-12-28T03:02:05;9.40;99.90
25128;DHT22;13107;51.304;6.866;2023-12-28T03:06:07;9.50;99.90
25128;DHT22;13107;51.304;6.866;2023-12-28T03:10:09;9.50;99.90
25128;DHT22;13107;51.304;6.866;2023-12-28T03:14:15;9.50;99.90
25128;DHT22;13107;51.304;6.866;2023-12-28T03:18:16;9.50;99.90
25128;DHT22;13107;51.304;6.866;2023-12-28T03:22:18;9.50;99.90
25128;DHT22;13107;51.304;6.866;2023-12-28T03:26:21;9.60;99.90
25128;DHT22;13107;51.304;6.866;2023-12-28T03:30:22;9.50;99.90
25128;DHT22;13107;51.304;6.866;2023-12-28T03:34:24;9.60;99.90
25128;DHT22;13107;51.304;6.866;2023-12-28T03:38:28;9.60;99.90
25128;DHT22;13107;51.304;6.866;2023-12-28T03:42:30;9.70;99.90
25128;DHT22;13107;51.304;6.866;2023-12-28T03:46:32;9.60;99.90
25128;DHT22;13107;51.304;6.866;2023-12-28T03:50:34;9.60;99.90
25128;DHT22;13107;51.304;6.866;2023-12-28T03:54:36;9.60;99.90
25128;DHT22;13107;51.304;6.866;2023-12-28T03:58:38;9.70;99.90
25128;DHT22;13107;51.304;6.866;2023-12-28T04:02:40;9.70;99.90
25128;DHT22;13107;51.304;6.866;2023-12-28T04:06:42;9.70;99.90
25128;DHT22;13107;51.304;6.866;2023-12-28T04:10:45;9.70;99.90
25128;DHT22;13107;51.304;6.866;2023-12-28T04:14:47;9.70;99.90
25128;DHT22;13107;51.304;6.866;2023-12-28T04:18:49;9.70;99.90
25128;DHT22;13107;51.304;6.866;2023-12-28T04:22:50;9.60;99.90
25128;DHT22;13107;51.304;6.866;2023-12-28T04:26:52;9.70;99.90
25128;DHT22;13107;51.304;6.866;2023-12-28T04:30:54;9.70;99.90
25128;DHT22;13107;51.304;6.866;2023-12-28T04:34:56;9.60;99.90
25128;DHT22;13107;51.304;6.866;2023-12-28T04:38:58;9.60;99.90
25128;DHT22;13107;51.304;6.866;2023-12-28T04:42:59;9.70;99.90
25128;DHT22;13107;51.304;6.866;2023-12-28T04:47:01;9.70;99.90
25128;DHT22;13107;51.304;6.866;2023-12-28T04:51:03;9.80;99.90
25128;DHT22;13107;51.304;6.866;2023-12-28T04:55:06;9.80;99.90
25128;DHT22;13107;51.304;6.866;2023-12-28T04:59:07;9.80;99.90
25128;DHT22;13107;51.304;6.866;2023-12-28T05:03:09;9.90;99.90
25128;DHT22;13107;51.304;6.866;2023-12-28T05:07:11;9.90;99.90
25128;DHT22;13107;51.304;6.866;2023-12-28T05:11:13;9.90;99.90
25128;DHT22;13107;51.304;6.866;2023-12-28T05:15:14;9.80;99.90
25128;DHT22;13107;51.304;6.866;2023-12-28T05:19:17;9.80;99.90
25128;DHT22;13107;51.304;6.866;2023-12-28T05:23:19;9.90;99.90
25128;DHT22;13107;51.304;6.866;2023-12-28T05:27:20;9.90;99.90
25128;DHT22;13107;51.304;6.866;2023-12-28T05:31:22;9.90;99.90
25128;DHT22;13107;51.304;6.866;2023-12-28T05:35:24;9.90;99.90
25128;DHT22;13107;51.304;6.866;2023-12-28T05:39:26;9.90;99.90
25128;DHT22;13107;51.304;6.866;2023-12-28T05:43:27;9.80;99.90
25128;DHT22;13107;51.304;6.866;2023-12-28T05:47:29;9.90;99.90
25128;DHT22;13107;51.304;6.866;2023-12-28T05:51:40;9.90;99.90
25128;DHT22;13107;51.304;6.866;2023-12-28T05:55:41;9.80;99.90
25128;DHT22;13107;51.304;6.866;2023-12-28T05:59:43;9.90;99.90
25128;DHT22;13107;51.304;6.866;2023-12-28T06:03:45;9.90;99.90
25128;DHT22;13107;51.304;6.866;2023-12-28T06:07:47;9.80;99.90
25128;DHT22;13107;51.304;6.866;2023-12-28T06:11:48;9.90;99.90
25128;DHT22;13107;51.304;6.866;2023-12-28T06:15:50;9.90;99.90
25128;DHT22;13107;51.304;6.866;2023-12-28T06:19:52;9.90;99.90
25128;DHT22;13107;51.304;6.866;2023-12-28T06:23:54;9.90;99.90
25128;DHT22;13107;51.304;6.866;2023-12-28T06:27:56;9.90;99.90
25128;DHT22;13107;51.304;6.866;2023-12-28T06:31:59;9.80;99.90
25128;DHT22;13107;51.304;6.866;2023-12-28T06:36:05;9.80;99.90
25128;DHT22;13107;51.304;6.866;2023-12-28T06:40:07;9.80;99.90
25128;DHT22;13107;51.304;6.866;2023-12-28T06:44:11;9.80;99.90
25128;DHT22;13107;51.304;6.866;2023-12-28T06:48:15;9.80;99.90
25128;DHT22;13107;51.304;6.866;2023-12-28T06:52:17;9.80;99.90
25128;DHT22;13107;51.304;6.866;2023-12-28T06:56:19;9.80;99.90
25128;DHT22;13107;51.304;6.866;2023-12-28T07:00:21;9.80;99.90
25128;DHT22;13107;51.304;6.866;2023-12-28T07:04:23;9.80;99.90
25128;DHT22;13107;51.304;6.866;2023-12-28T07:08:27;9.90;99.90
25128;DHT22;13107;51.304;6.866;2023-12-28T07:12:28;9.90;99.90
25128;DHT22;13107;51.304;6.866;2023-12-28T07:16:30;9.90;99.90
25128;DHT22;13107;51.304;6.866;2023-12-28T07:20:32;10.00;99.90
25128;DHT22;13107;51.304;6.866;2023-12-28T07:24:33;10.00;99.90
25128;DHT22;13107;51.304;6.866;2023-12-28T07:28:35;10.10;99.90
25128;DHT22;13107;51.304;6.866;2023-12-28T07:32:37;10.10;99.90
25128;DHT22;13107;51.304;6.866;2023-12-28T07:36:39;10.10;99.90
25128;DHT22;13107;51.304;6.866;2023-12-28T07:40:44;10.10;99.90
25128;DHT22;13107;51.304;6.866;2023-12-28T07:44:46;10.10;99.90
25128;DHT22;13107;51.304;6.866;2023-12-28T07:48:47;10.30;99.90
25128;DHT22;13107;51.304;6.866;2023-12-28T07:52:50;10.20;99.90
25128;DHT22;13107;51.304;6.866;2023-12-28T07:56:51;10.20;99.90
25128;DHT22;13107;51.304;6.866;2023-12-28T08:00:53;10.20;99.90
25128;DHT22;13107;51.304;6.866;2023-12-28T08:04:55;10.20;99.90
25128;DHT22;13107;51.304;6.866;2023-12-28T08:08:57;10.20;99.90
25128;DHT22;13107;51.304;6.866;2023-12-28T08:13:00;10.20;99.90
25128;DHT22;13107;51.304;6.866;2023-12-28T08:17:02;10.20;99.90
25128;DHT22;13107;51.304;6.866;2023-12-28T08:21:04;10.20;99.90
25128;DHT22;13107;51.304;6.866;2023-12-28T08:25:06;10.20;99.90
25128;DHT22;13107;51.304;6.866;2023-12-28T08:29:08;10.20;99.90
25128;DHT22;13107;51.304;6.866;2023-12-28T08:33:10;10.20;99.90
25128;DHT22;13107;51.304;6.866;2023-12-28T08:37:12;10.20;99.90
25128;DHT22;13107;51.304;6.866;2023-12-28T08:41:20;10.20;99.90
25128;DHT22;13107;51.304;6.866;2023-12-28T08:45:22;10.20;99.90
25128;DHT22;13107;51.304;6.866;2023-12-28T08:49:24;10.20;99.90
25128;DHT22;13107;51.304;6.866;2023-12-28T08:53:26;10.30;99.90
25128;DHT22;13107;51.304;6.866;2023-12-28T08:57:28;10.20;99.90
25128;DHT22;13107;51.304;6.866;2023-12-28T09:01:42;10.30;99.90
25128;DHT22;13107;51.304;6.866;2023-12-28T09:05:44;10.30;99.90
25128;DHT22;13107;51.304;6.866;2023-12-28T09:09:46;10.20;99.90
25128;DHT22;13107;51.304;6.866;2023-12-28T09:13:48;10.30;99.90
25128;DHT22;13107;51.304;6.866;2023-12-28T09:17:50;10.30;99.90
25128;DHT22;13107;51.304;6.866;2023-12-28T09:21:52;10.40;99.90
25128;DHT22;13107;51.304;6.866;2023-12-28T09:25:54;10.50;99.90
25128;DHT22;13107;51.304;6.866;2023-12-28T09:29:56;10.60;99.90
25128;DHT22;13107;51.304;6.866;2023-12-28T09:33:57;10.60;99.90
25128;DHT22;13107;51.304;6.866;2023-12-28T09:37:59;10.60;99.90
25128;DHT22;13107;51.304;6.866;2023-12-28T09:42:06;10.70;99.90
25128;DHT22;13107;51.304;6.866;2023-12-28T09:46:10;10.70;99.90
25128;DHT22;13107;51.304;6.866;2023-12-28T09:50:13;10.70;99.90
25128;DHT22;13107;51.304;6.866;2023-12-28T09:54:16;10.70;99.90
25128;DHT22;13107;51.304;6.866;2023-12-28T09:58:21;10.80;99.90
25128;DHT22;13107;51.304;6.866;2023-12-28T10:02:24;10.80;99.90
25128;DHT22;13107;51.304;6.866;2023-12-28T10:06:25;10.80;99.90
25128;DHT22;13107;51.304;6.866;2023-12-28T10:10:29;10.80;99.90
25128;DHT22;13107;51.304;6.866;2023-12-28T10:14:30;10.90;99.90
25128;DHT22;13107;51.304;6.866;2023-12-28T10:18:32;10.80;99.90
25128;DHT22;13107;51.304;6.866;2023-12-28T10:22:34;10.90;99.90
25128;DHT22;13107;51.304;6.866;2023-12-28T10:26:36;11.00;99.90
25128;DHT22;13107;51.304;6.866;2023-12-28T10:30:38;10.90;99.90
25128;DHT22;13107;51.304;6.866;2023-12-28T10:34:43;11.00;99.90
25128;DHT22;13107;51.304;6.866;2023-12-28T10:38:45;11.00;99.90
25128;DHT22;13107;51.304;6.866;2023-12-28T10:42:54;11.00;99.90
25128;DHT22;13107;51.304;6.866;2023-12-28T10:47:01;11.10;99.90
25128;DHT22;13107;51.304;6.866;2023-12-28T10:51:05;11.10;99.90
25128;DHT22;13107;51.304;6.866;2023-12-28T10:55:21;11.20;99.90
25128;DHT22;13107;51.304;6.866;2023-12-28T10:59:44;11.40;99.90
25128;DHT22;13107;51.304;6.866;2023-12-28T11:03:58;11.50;99.90
25128;DHT22;13107;51.304;6.866;2023-12-28T11:08:02;11.40;99.90
25128;DHT22;13107;51.304;6.866;2023-12-28T11:12:07;11.60;99.90
25128;DHT22;13107;51.304;6.866;2023-12-28T11:16:10;11.60;99.90
25128;DHT22;13107;51.304;6.866;2023-12-28T11:20:13;11.70;99.90
25128;DHT22;13107;51.304;6.866;2023-12-28T11:24:16;11.70;99.90
25128;DHT22;13107;51.304;6.866;2023-12-28T11:28:18;11.60;99.90
25128;DHT22;13107;51.304;6.866;2023-12-28T11:32:21;11.60;99.90
25128;DHT22;13107;51.304;6.866;2023-12-28T11:36:32;11.60;99.90
25128;DHT22;13107;51.304;6.866;2023-12-28T11:40:52;11.70;99.90
25128;DHT22;13107;51.304;6.866;2023-12-28T11:44:56;11.80;99.90
25128;DHT22;13107;51.304;6.866;2023-12-28T11:49:08;11.80;99.90
25128;DHT22;13107;51.304;6.866;2023-12-28T11:53:12;11.80;99.90
25128;DHT22;13107;51.304;6.866;2023-12-28T11:57:15;11.90;99.90
25128;DHT22;13107;51.304;6.866;2023-12-28T12:01:17;11.90;99.90
25128;DHT22;13107;51.304;6.866;2023-12-28T12:05:20;11.90;99.90
25128;DHT22;13107;51.304;6.866;2023-12-28T12:09:22;11.80;99.90
25128;DHT22;13107;51.304;6.866;2023-12-28T12:13:24;11.70;99.90
25128;DHT22;13107;51.304;6.866;2023-12-28T12:17:27;11.70;99.90
25128;DHT22;13107;51.304;6.866;2023-12-28T12:21:29;11.70;99.90
25128;DHT22;13107;51.304;6.866;2023-12-28T12:25:31;11.70;99.90
25128;DHT22;13107;51.304;6.866;2023-12-28T12:29:32;11.60;99.90
25128;DHT22;13107;51.304;6.866;2023-12-28T12:33:34;11.60;99.90
25128;DHT22;13107;51.304;6.866;2023-12-28T12:37:36;11.70;99.90
25128;DHT22;13107;51.304;6.866;2023-12-28T12:41:53;11.60;99.90
25128;DHT22;13107;51.304;6.866;2023-12-28T12:45:54;11.50;99.90
25128;DHT22;13107;51.304;6.866;2023-12-28T12:49:56;11.50;99.90
25128;DHT22;13107;51.304;6.866;2023-12-28T12:54:02;11.60;99.90
25128;DHT22;13107;51.304;6.866;2023-12-28T12:58:05;11.60;99.90
25128;DHT22;13107;51.304;6.866;2023-12-28T13:02:08;11.70;99.90
25128;DHT22;13107;51.304;6.866;2023-12-28T13:06:10;11.60;99.90
25128;DHT22;13107;51.304;6.866;2023-12-28T13:10:12;11.60;99.90
25128;DHT22;13107;51.304;6.866;2023-12-28T13:14:14;11.70;99.90
25128;DHT22;13107;51.304;6.866;2023-12-28T13:18:15;11.60;99.90
25128;DHT22;13107;51.304;6.866;2023-12-28T13:22:17;11.60;99.90
25128;DHT22;13107;51.304;6.866;2023-12-28T13:26:19;11.50;99.90
25128;DHT22;13107;51.304;6.866;2023-12-28T13:30:21;11.50;99.90
25128;DHT22;13107;51.304;6.866;2023-12-28T13:34:23;11.50;99.90
25128;DHT22;13107;51.304;6.866;2023-12-28T13:38:26;11.50;99.90
25128;DHT22;13107;51.304;6.866;2023-12-28T13:42:28;11.50;99.90
25128;DHT22;13107;51.304;6.866;2023-12-28T13:46:31;11.50;99.90
25128;DHT22;13107;51.304;6.866;2023-12-28T13:50:32;11.40;99.90
25128;DHT22;13107;51.304;6.866;2023-12-28T13:54:34;11.40;99.90
25128;DHT22;13107;51.304;6.866;2023-12-28T13:58:36;11.40;99.90
25128;DHT22;13107;51.304;6.866;2023-12-28T14:02:37;11.30;99.90
25128;DHT22;13107;51.304;6.866;2023-12-28T14:06:39;11.40;99.90
25128;DHT22;13107;51.304;6.866;2023-12-28T14:10:41;11.30;99.90
25128;DHT22;13107;51.304;6.866;2023-12-28T14:14:43;11.30;99.90
25128;DHT22;13107;51.304;6.866;2023-12-28T14:18:45;11.40;99.90
25128;DHT22;13107;51.304;6.866;2023-12-28T14:22:47;11.30;99.90
25128;DHT22;13107;51.304;6.866;2023-12-28T14:26:50;11.30;99.90
25128;DHT22;13107;51.304;6.866;2023-12-28T14:30:54;11.20;99.90
25128;DHT22;13107;51.304;6.866;2023-12-28T14:34:56;11.20;99.90
25128;DHT22;13107;51.304;6.866;2023-12-28T14:38:59;11.20;99.90
25128;DHT22;13107;51.304;6.866;2023-12-28T14:43:03;11.20;99.90
25128;DHT22;13107;51.304;6.866;2023-12-28T14:47:05;11.20;99.90
25128;DHT22;13107;51.304;6.866;2023-12-28T14:51:07;11.10;99.90
25128;DHT22;13107;51.304;6.866;2023-12-28T14:55:09;11.10;99.90
25128;DHT22;13107;51.304;6.866;2023-12-28T14:59:11;11.00;99.90
25128;DHT22;13107;51.304;6.866;2023-12-28T15:03:13;11.00;99.90
25128;DHT22;13107;51.304;6.866;2023-12-28T15:07:15;11.00;99.90
25128;DHT22;13107;51.304;6.866;2023-12-28T15:11:18;10.90;99.90
25128;DHT22;13107;51.304;6.866;2023-12-28T15:15:25;10.90;99.90
25128;DHT22;13107;51.304;6.866;2023-12-28T15:19:27;10.90;99.90
25128;DHT22;13107;51.304;6.866;2023-12-28T15:23:29;10.80;99.90
25128;DHT22;13107;51.304;6.866;2023-12-28T15:27:32;10.80;99.90
25128;DHT22;13107;51.304;6.866;2023-12-28T15:31:33;10.70;99.90
25128;DHT22;13107;51.304;6.866;2023-12-28T15:35:39;10.80;99.90
25128;DHT22;13107;51.304;6.866;2023-12-28T15:39:40;10.90;99.90
25128;DHT22;13107;51.304;6.866;2023-12-28T15:43:43;10.90;99.90
25128;DHT22;13107;51.304;6.866;2023-12-28T15:47:45;10.90;99.90
25128;DHT22;13107;51.304;6.866;2023-12-28T15:51:47;11.10;99.90
25128;DHT22;13107;51.304;6.866;2023-12-28T15:55:49;10.90;99.90
25128;DHT22;13107;51.304;6.866;2023-12-28T16:00:05;10.80;99.90
25128;DHT22;13107;51.304;6.866;2023-12-28T16:04:09;10.70;99.90
25128;DHT22;13107;51.304;6.866;2023-12-28T16:08:11;10.70;99.90
25128;DHT22;13107;51.304;6.866;2023-12-28T16:12:13;10.70;99.90
25128;DHT22;13107;51.304;6.866;2023-12-28T16:16:15;10.70;99.90
25128;DHT22;13107;51.304;6.866;2023-12-28T16:20:17;10.70;99.90
25128;DHT22;13107;51.304;6.866;2023-12-28T16:24:19;10.60;99.90
25128;DHT22;13107;51.304;6.866;2023-12-28T16:28:21;10.60;99.90
25128;DHT22;13107;51.304;6.866;2023-12-28T16:32:23;10.60;99.90
25128;DHT22;13107;51.304;6.866;2023-12-28T16:36:25;10.60;99.90
25128;DHT22;13107;51.304;6.866;2023-12-28T16:40:27;10.60;99.90
25128;DHT22;13107;51.304;6.866;2023-12-28T16:44:29;10.60;99.90
25128;DHT22;13107;51.304;6.866;2023-12-28T16:48:32;10.50;99.90
25128;DHT22;13107;51.304;6.866;2023-12-28T16:52:34;10.60;99.90
25128;DHT22;13107;51.304;6.866;2023-12-28T16:56:35;10.50;99.90
25128;DHT22;13107;51.304;6.866;2023-12-28T17:00:39;10.60;99.90
25128;DHT22;13107;51.304;6.866;2023-12-28T17:04:41;10.60;99.90
25128;DHT22;13107;51.304;6.866;2023-12-28T17:08:43;10.50;99.90
25128;DHT22;13107;51.304;6.866;2023-12-28T17:12:45;10.50;99.90
25128;DHT22;13107;51.304;6.866;2023-12-28T17:16:47;10.50;99.90
25128;DHT22;13107;51.304;6.866;2023-12-28T17:20:51;10.50;99.90
25128;DHT22;13107;51.304;6.866;2023-12-28T17:29:19;10.50;99.90
25128;DHT22;13107;51.304;6.866;2023-12-28T17:33:21;10.50;99.90
25128;DHT22;13107;51.304;6.866;2023-12-28T17:37:26;10.40;99.90
25128;DHT22;13107;51.304;6.866;2023-12-28T17:41:30;10.30;99.90
25128;DHT22;13107;51.304;6.866;2023-12-28T17:45:42;10.30;99.90
25128;DHT22;13107;51.304;6.866;2023-12-28T17:49:48;10.30;99.90
25128;DHT22;13107;51.304;6.866;2023-12-28T17:53:51;10.30;99.90
25128;DHT22;13107;51.304;6.866;2023-12-28T17:57:52;10.30;99.90
25128;DHT22;13107;51.304;6.866;2023-12-28T18:01:54;10.30;99.90
25128;DHT22;13107;51.304;6.866;2023-12-28T18:05:56;10.30;99.90
25128;DHT22;13107;51.304;6.866;2023-12-28T18:09:58;10.30;99.90
25128;DHT22;13107;51.304;6.866;2023-12-28T18:13:59;10.30;99.90
25128;DHT22;13107;51.304;6.866;2023-12-28T18:18:01;10.40;99.90
25128;DHT22;13107;51.304;6.866;2023-12-28T18:22:04;10.30;99.90
25128;DHT22;13107;51.304;6.866;2023-12-28T18:26:07;10.30;99.90
25128;DHT22;13107;51.304;6.866;2023-12-28T18:30:09;10.30;99.90
25128;DHT22;13107;51.304;6.866;2023-12-28T18:34:11;10.30;99.90
25128;DHT22;13107;51.304;6.866;2023-12-28T18:38:14;10.30;99.90
25128;DHT22;13107;51.304;6.866;2023-12-28T18:42:15;10.30;99.90
25128;DHT22;13107;51.304;6.866;2023-12-28T18:46:17;10.20;99.90
25128;DHT22;13107;51.304;6.866;2023-12-28T18:50:19;10.20;99.90
25128;DHT22;13107;51.304;6.866;2023-12-28T18:54:21;10.30;99.90
25128;DHT22;13107;51.304;6.866;2023-12-28T18:58:23;10.20;99.90
25128;DHT22;13107;51.304;6.866;2023-12-28T19:02:24;10.20;99.90
25128;DHT22;13107;51.304;6.866;2023-12-28T19:06:27;10.20;99.90
25128;DHT22;13107;51.304;6.866;2023-12-28T19:10:29;10.20;99.90
25128;DHT22;13107;51.304;6.866;2023-12-28T19:14:31;10.30;99.90
25128;DHT22;13107;51.304;6.866;2023-12-28T19:18:32;10.20;99.90
25128;DHT22;13107;51.304;6.866;2023-12-28T19:22:35;10.30;99.90
25128;DHT22;13107;51.304;6.866;2023-12-28T19:26:36;10.20;99.90
25128;DHT22;13107;51.304;6.866;2023-12-28T19:30:38;10.20;99.90
25128;DHT22;13107;51.304;6.866;2023-12-28T19:34:40;10.20;99.90
25128;DHT22;13107;51.304;6.866;2023-12-28T19:38:42;10.20;99.90
25128;DHT22;13107;51.304;6.866;2023-12-28T19:42:44;10.20;99.90
25128;DHT22;13107;51.304;6.866;2023-12-28T19:46:45;10.20;99.90
25128;DHT22;13107;51.304;6.866;2023-12-28T19:50:47;10.20;99.90
25128;DHT22;13107;51.304;6.866;2023-12-28T19:54:49;10.10;99.90
25128;DHT22;13107;51.304;6.866;2023-12-28T19:58:51;10.20;99.90
25128;DHT22;13107;51.304;6.866;2023-12-28T20:02:52;10.20;99.90
25128;DHT22;13107;51.304;6.866;2023-12-28T20:06:54;10.20;99.90
25128;DHT22;13107;51.304;6.866;2023-12-28T20:10:57;10.20;99.90
25128;DHT22;13107;51.304;6.866;2023-12-28T20:14:59;10.20;99.90
25128;DHT22;13107;51.304;6.866;2023-12-28T20:19:01;10.20;99.90
25128;DHT22;13107;51.304;6.866;2023-12-28T20:23:03;10.20;99.90
25128;DHT22;13107;51.304;6.866;2023-12-28T20:27:05;10.10;99.90
25128;DHT22;13107;51.304;6.866;2023-12-28T20:31:07;10.10;99.90
25128;DHT22;13107;51.304;6.866;2023-12-28T20:35:08;10.10;99.90
25128;DHT22;13107;51.304;6.866;2023-12-28T20:39:10;10.10;99.90
25128;DHT22;13107;51.304;6.866;2023-12-28T20:43:12;10.10;99.90
25128;DHT22;13107;51.304;6.866;2023-12-28T20:47:14;10.10;99.90
25128;DHT22;13107;51.304;6.866;2023-12-28T20:51:16;10.10;99.90
25128;DHT22;13107;51.304;6.866;2023-12-28T20:55:19;10.10;99.90
25128;DHT22;13107;51.304;6.866;2023-12-28T20:59:21;10.10;99.90
25128;DHT22;13107;51.304;6.866;2023-12-28T21:03:23;10.10;99.90
25128;DHT22;13107;51.304;6.866;2023-12-28T21:07:25;10.10;99.90
25128;DHT22;13107;51.304;6.866;2023-12-28T21:11:26;10.10;99.90
25128;DHT22;13107;51.304;6.866;2023-12-28T21:15:28;10.10;99.90
25128;DHT22;13107;51.304;6.866;2023-12-28T21:19:30;10.10;99.90
25128;DHT22;13107;51.304;6.866;2023-12-28T21:23:32;10.30;99.90
25128;DHT22;13107;51.304;6.866;2023-12-28T21:27:34;10.50;99.90
25128;DHT22;13107;51.304;6.866;2023-12-28T21:31:36;10.30;99.90
25128;DHT22;13107;51.304;6.866;2023-12-28T21:35:38;10.20;99.90
25128;DHT22;13107;51.304;6.866;2023-12-28T21:39:40;10.10;99.90
25128;DHT22;13107;51.304;6.866;2023-12-28T21:43:42;10.10;99.90
25128;DHT22;13107;51.304;6.866;2023-12-28T21:47:44;10.20;99.90
25128;DHT22;13107;51.304;6.866;2023-12-28T21:51:47;10.10;99.90
25128;DHT22;13107;51.304;6.866;2023-12-28T21:55:48;10.10;99.90
25128;DHT22;13107;51.304;6.866;2023-12-28T21:59:50;10.10;99.90
25128;DHT22;13107;51.304;6.866;2023-12-28T22:03:52;10.20;99.90
25128;DHT22;13107;51.304;6.866;2023-12-28T22:07:54;10.20;99.90
25128;DHT22;13107;51.304;6.866;2023-12-28T22:11:56;10.20;99.90
25128;DHT22;13107;51.304;6.866;2023-12-28T22:15:58;10.20;99.90
25128;DHT22;13107;51.304;6.866;2023-12-28T22:20:01;10.30;99.90
25128;DHT22;13107;51.304;6.866;2023-12-28T22:24:06;10.20;99.90
25128;DHT22;13107;51.304;6.866;2023-12-28T22:28:08;10.30;99.90
25128;DHT22;13107;51.304;6.866;2023-12-28T22:32:10;10.30;99.90
25128;DHT22;13107;51.304;6.866;2023-12-28T22:36:12;10.40;99.90
25128;DHT22;13107;51.304;6.866;2023-12-28T22:40:13;10.30;99.90
25128;DHT22;13107;51.304;6.866;2023-12-28T22:44:15;10.30;99.90
25128;DHT22;13107;51.304;6.866;2023-12-28T22:48:17;10.30;99.90
25128;DHT22;13107;51.304;6.866;2023-12-28T22:52:20;10.40;99.90
25128;DHT22;13107;51.304;6.866;2023-12-28T22:56:22;10.40;99.90
25128;DHT22;13107;51.304;6.866;2023-12-28T23:00:23;10.40;99.90
25128;DHT22;13107;51.304;6.866;2023-12-28T23:04:27;10.40;99.90
25128;DHT22;13107;51.304;6.866;2023-12-28T23:08:33;10.40;99.90
25128;DHT22;13107;51.304;6.866;2023-12-28T23:12:34;10.40;99.90
25128;DHT22;13107;51.304;6.866;2023-12-28T23:16:37;10.30;99.90
25128;DHT22;13107;51.304;6.866;2023-12-28T23:20:40;10.40;99.90
25128;DHT22;13107;51.304;6.866;2023-12-28T23:24:42;10.40;99.90
25128;DHT22;13107;51.304;6.866;2023-12-28T23:28:44;10.40;99.90
25128;DHT22;13107;51.304;6.866;2023-12-28T23:32:45;10.40;99.90
25128;DHT22;13107;51.304;6.866;2023-12-28T23:36:47;10.40;99.90
25128;DHT22;13107;51.304;6.866;2023-12-28T23:40:50;10.40;99.90
25128;DHT22;13107;51.304;6.866;2023-12-28T23:44:52;10.40;99.90
25128;DHT22;13107;51.304;6.866;2023-12-28T23:48:54;10.40;99.90
25128;DHT22;13107;51.304;6.866;2023-12-28T23:52:56;10.40;99.90
25128;DHT22;13107;51.304;6.866;2023-12-28T23:56:57;10.40;99.90
